createdAt,value
2019-01-27T00:01:53.387Z,4.10
2019-01-27T00:04:23.919Z,4.10
2019-01-27T00:06:54.219Z,4.10
2019-01-27T00:09:24.535Z,4.10
2019-01-27T00:11:54.732Z,4.10
2019-01-27T00:14:24.887Z,4.10
2019-01-27T00:16:54.939Z,4.10
2019-01-27T00:19:24.939Z,4.10
2019-01-27T00:21:54.958Z,4.20
2019-01-27T00:24:25.525Z,4.20
2019-01-27T00:26:56.426Z,4.20
2019-01-27T00:29:26.487Z,4.20
2019-01-27T00:31:56.425Z,4.20
2019-01-27T00:34:26.521Z,4.20
2019-01-27T00:36:57.317Z,4.10
2019-01-27T00:39:27.722Z,4.10
2019-01-27T00:41:57.767Z,4.10
2019-01-27T00:44:28.198Z,4.10
2019-01-27T00:46:58.829Z,4.10
2019-01-27T00:49:28.805Z,4.10
2019-01-27T00:51:58.773Z,4.10
2019-01-27T00:54:28.965Z,4.10
2019-01-27T00:56:59.115Z,4.00
2019-01-27T00:59:29.103Z,4.10
2019-01-27T01:01:59.186Z,4.10
2019-01-27T01:04:29.236Z,4.10
2019-01-27T01:06:59.680Z,4.10
2019-01-27T01:09:29.763Z,4.10
2019-01-27T01:11:59.925Z,4.10
2019-01-27T01:14:29.929Z,4.10
2019-01-27T01:17:00.345Z,4.10
2019-01-27T01:19:30.374Z,4.10
2019-01-27T01:22:00.793Z,4.10
2019-01-27T01:24:30.827Z,4.10
2019-01-27T01:27:00.876Z,4.10
2019-01-27T01:29:32.349Z,4.10
2019-01-27T01:32:02.434Z,4.10
2019-01-27T01:34:32.606Z,4.10
2019-01-27T01:37:02.932Z,4.10
2019-01-27T01:39:32.985Z,4.10
2019-01-27T01:42:03.507Z,4.10
2019-01-27T01:44:33.609Z,4.10
2019-01-27T01:47:04.129Z,4.10
2019-01-27T01:49:34.330Z,4.10
2019-01-27T01:52:04.784Z,4.10
2019-01-27T01:54:34.854Z,4.10
2019-01-27T01:57:04.942Z,4.10
2019-01-27T01:59:34.801Z,4.10
2019-01-27T02:02:05.391Z,4.20
2019-01-27T02:04:35.360Z,4.20
2019-01-27T02:07:05.601Z,4.20
2019-01-27T02:09:35.708Z,4.20
2019-01-27T02:12:05.904Z,4.20
2019-01-27T02:14:36.242Z,4.20
2019-01-27T02:17:06.225Z,4.20
2019-01-27T02:19:36.509Z,4.30
2019-01-27T02:22:06.736Z,4.30
2019-01-27T02:24:37.080Z,4.30
2019-01-27T02:27:07.344Z,4.30
2019-01-27T02:29:37.542Z,4.40
2019-01-27T02:32:07.612Z,4.40
2019-01-27T02:34:37.687Z,4.40
2019-01-27T02:37:07.754Z,4.40
2019-01-27T02:39:37.803Z,4.50
2019-01-27T02:42:07.985Z,4.50
2019-01-27T02:44:38.118Z,4.50
2019-01-27T02:47:08.643Z,4.60
2019-01-27T02:49:38.762Z,4.60
2019-01-27T02:52:09.150Z,4.60
2019-01-27T02:54:39.305Z,4.60
2019-01-27T02:57:09.723Z,4.60
2019-01-27T02:59:40.502Z,4.60
2019-01-27T03:02:11.119Z,4.60
2019-01-27T03:05:02.115Z,4.60
2019-01-27T03:07:37.834Z,4.60
2019-01-27T03:10:11.929Z,4.60
2019-01-27T03:12:42.338Z,4.60
2019-01-27T03:15:13.547Z,4.50
2019-01-27T03:17:43.801Z,4.50
2019-01-27T03:20:14.195Z,4.40
2019-01-27T03:22:44.226Z,4.30
2019-01-27T03:25:14.510Z,4.30
2019-01-27T03:27:47.653Z,4.20
2019-01-27T03:30:18.802Z,4.20
2019-01-27T03:32:52.395Z,4.20
2019-01-27T03:35:22.682Z,4.20
2019-01-27T03:37:52.718Z,4.10
2019-01-27T03:40:23.079Z,4.10
2019-01-27T03:42:53.865Z,4.10
2019-01-27T03:45:26.253Z,4.10
2019-01-27T03:47:56.361Z,4.10
2019-01-27T03:50:26.429Z,4.10
2019-01-27T03:52:56.712Z,4.20
2019-01-27T03:55:27.249Z,4.10
2019-01-27T03:57:57.418Z,4.10
2019-01-27T04:00:27.835Z,4.10
2019-01-27T04:02:57.967Z,4.10
2019-01-27T04:05:28.205Z,4.10
2019-01-27T04:07:58.400Z,4.10
2019-01-27T04:10:28.548Z,4.10
2019-01-27T04:12:58.670Z,4.10
2019-01-27T04:15:29.265Z,4.10
2019-01-27T04:17:59.500Z,4.10
2019-01-27T04:20:29.488Z,4.10
2019-01-27T04:22:59.555Z,4.10
2019-01-27T04:25:29.870Z,4.10
2019-01-27T04:27:59.996Z,4.10
2019-01-27T04:30:35.162Z,4.10
2019-01-27T04:33:05.748Z,4.10
2019-01-27T04:35:35.833Z,4.20
2019-01-27T04:38:07.181Z,4.20
2019-01-27T04:40:37.208Z,4.20
2019-01-27T04:43:07.821Z,4.20
2019-01-27T04:45:39.097Z,4.20
2019-01-27T04:48:09.416Z,4.20
2019-01-27T04:50:39.892Z,4.20
2019-01-27T04:53:10.687Z,4.20
2019-01-27T04:55:40.690Z,4.20
2019-01-27T04:58:10.782Z,4.20
2019-01-27T05:00:40.913Z,4.20
2019-01-27T05:03:39.348Z,4.20
2019-01-27T05:06:09.422Z,4.30
2019-01-27T05:08:39.482Z,4.20
2019-01-27T05:11:09.763Z,4.30
2019-01-27T05:13:39.829Z,4.30
2019-01-27T05:16:10.017Z,4.30
2019-01-27T05:18:40.732Z,4.30
2019-01-27T05:21:10.850Z,4.30
2019-01-27T05:23:41.298Z,4.30
2019-01-27T05:26:11.733Z,4.40
2019-01-27T05:28:41.921Z,4.40
2019-01-27T05:31:12.114Z,4.40
2019-01-27T05:33:42.241Z,4.30
2019-01-27T05:36:12.914Z,4.40
2019-01-27T05:38:42.945Z,4.40
2019-01-27T05:41:13.396Z,4.40
2019-01-27T05:43:43.395Z,4.40
2019-01-27T05:46:13.268Z,4.40
2019-01-27T05:48:43.521Z,4.40
2019-01-27T05:51:13.629Z,4.40
2019-01-27T05:53:43.656Z,4.40
2019-01-27T05:56:13.645Z,4.40
2019-01-27T05:58:44.036Z,4.40
2019-01-27T06:01:14.563Z,4.40
2019-01-27T06:03:44.644Z,4.40
2019-01-27T06:06:15.589Z,4.40
2019-01-27T06:08:45.590Z,4.40
2019-01-27T06:11:15.641Z,4.40
2019-01-27T06:13:49.496Z,4.40
2019-01-27T06:16:19.773Z,4.50
2019-01-27T06:18:49.949Z,4.40
2019-01-27T06:21:20.153Z,4.50
2019-01-27T06:23:50.154Z,4.40
2019-01-27T06:26:20.138Z,4.40
2019-01-27T06:28:50.203Z,4.50
2019-01-27T06:31:20.585Z,4.40
2019-01-27T06:33:58.577Z,4.50
2019-01-27T06:36:28.658Z,4.50
2019-01-27T06:38:58.715Z,4.50
2019-01-27T06:41:28.644Z,4.50
2019-01-27T06:43:58.636Z,4.50
2019-01-27T06:46:29.118Z,4.50
2019-01-27T06:48:59.377Z,4.50
2019-01-27T06:51:29.850Z,4.50
2019-01-27T06:53:59.960Z,4.50
2019-01-27T06:56:29.954Z,4.50
2019-01-27T06:59:08.045Z,4.50
2019-01-27T07:01:48.403Z,4.50
2019-01-27T07:04:28.868Z,4.50
2019-01-27T07:07:06.209Z,4.50
2019-01-27T07:09:58.698Z,4.60
2019-01-27T07:12:37.559Z,4.60
2019-01-27T07:15:30.164Z,4.60
2019-01-27T07:18:14.063Z,4.50
2019-01-27T07:21:02.515Z,4.50
2019-01-27T07:23:42.007Z,4.50
2019-01-27T07:26:29.907Z,4.50
2019-01-27T07:29:34.619Z,4.50
2019-01-27T07:32:13.662Z,4.50
2019-01-27T07:35:06.244Z,4.60
2019-01-27T07:37:50.614Z,4.70
2019-01-27T07:40:52.478Z,4.70
2019-01-27T07:43:38.025Z,4.70
2019-01-27T07:46:36.192Z,4.70
2019-01-27T07:49:24.055Z,4.70
2019-01-27T07:52:12.975Z,4.70
2019-01-27T07:55:08.434Z,4.80
2019-01-27T07:57:52.673Z,4.80
2019-01-27T08:00:29.653Z,4.80
2019-01-27T08:03:22.350Z,4.80
2019-01-27T08:06:10.467Z,4.80
2019-01-27T08:08:53.617Z,4.80
2019-01-27T08:11:28.852Z,4.80
2019-01-27T08:14:30.914Z,4.80
2019-01-27T08:17:22.993Z,4.80
2019-01-27T08:20:27.445Z,4.90
2019-01-27T08:23:08.008Z,5.00
2019-01-27T08:26:04.873Z,5.00
2019-01-27T08:28:56.071Z,5.00
2019-01-27T08:31:42.573Z,5.00
2019-01-27T08:34:37.712Z,5.00
2019-01-27T08:37:19.817Z,5.10
2019-01-27T08:40:03.935Z,5.50
2019-01-27T08:42:56.040Z,5.70
2019-01-27T08:45:40.650Z,5.70
2019-01-27T08:48:11.058Z,6.20
2019-01-27T08:50:41.546Z,6.30
2019-01-27T08:53:12.165Z,6.40
2019-01-27T08:55:42.335Z,6.50
2019-01-27T08:58:12.522Z,6.60
2019-01-27T09:00:49.491Z,6.70
2019-01-27T09:03:31.908Z,6.70
2019-01-27T09:06:16.813Z,6.60
2019-01-27T09:09:05.237Z,6.40
2019-01-27T09:11:55.043Z,6.30
2019-01-27T09:14:32.075Z,6.30
2019-01-27T09:17:24.238Z,6.30
2019-01-27T09:20:22.580Z,6.30
2019-01-27T09:23:15.058Z,6.20
2019-01-27T09:25:54.357Z,6.10
2019-01-27T09:28:31.948Z,5.90
2019-01-27T09:31:19.234Z,5.80
2019-01-27T09:34:13.005Z,5.70
2019-01-27T09:37:00.695Z,5.60
2019-01-27T09:39:58.950Z,5.60
2019-01-27T09:42:46.913Z,5.50
2019-01-27T09:45:28.967Z,5.40
2019-01-27T09:48:08.886Z,5.40
2019-01-27T09:51:00.913Z,5.40
2019-01-27T09:53:53.089Z,5.40
2019-01-27T09:56:42.313Z,5.40
2019-01-27T09:59:28.166Z,5.50
2019-01-27T10:02:16.070Z,5.50
2019-01-27T10:04:57.164Z,5.50
2019-01-27T10:07:53.225Z,5.50
2019-01-27T10:10:58.037Z,5.50
2019-01-27T10:13:46.156Z,5.60
2019-01-27T10:16:34.087Z,5.60
2019-01-27T10:19:19.764Z,5.60
2019-01-27T10:22:11.829Z,5.60
2019-01-27T10:25:00.237Z,5.60
2019-01-27T10:28:01.587Z,5.70
2019-01-27T10:30:51.261Z,5.70
2019-01-27T10:33:37.482Z,5.70
2019-01-27T10:36:35.841Z,5.60
2019-01-27T10:39:27.920Z,5.60
2019-01-27T10:42:29.483Z,5.60
2019-01-27T10:45:19.493Z,5.60
2019-01-27T10:48:11.740Z,5.60
2019-01-27T10:50:59.669Z,5.60
2019-01-27T10:53:43.595Z,5.60
2019-01-27T10:56:35.954Z,5.70
2019-01-27T10:59:16.876Z,5.70
2019-01-27T11:02:16.492Z,5.80
2019-01-27T11:05:04.484Z,5.80
2019-01-27T11:08:00.190Z,5.80
2019-01-27T11:10:49.453Z,5.90
2019-01-27T11:13:38.952Z,6.00
2019-01-27T11:16:29.134Z,6.10
2019-01-27T11:19:10.090Z,6.20
2019-01-27T11:22:00.674Z,6.30
2019-01-27T11:24:55.879Z,6.40
2019-01-27T11:27:39.892Z,6.50
2019-01-27T11:30:38.133Z,6.60
2019-01-27T11:33:33.993Z,6.70
2019-01-27T11:36:22.275Z,6.90
2019-01-27T11:39:29.700Z,7.00
2019-01-27T11:42:20.827Z,7.00
2019-01-27T11:45:03.343Z,7.10
2019-01-27T11:47:55.491Z,7.20
2019-01-27T11:50:30.293Z,7.30
2019-01-27T11:53:03.792Z,7.40
2019-01-27T11:55:36.631Z,7.50
2019-01-27T11:58:12.618Z,7.60
2019-01-27T12:00:46.782Z,7.80
2019-01-27T12:03:17.098Z,8.00
2019-01-27T12:05:47.647Z,8.10
2019-01-27T12:08:17.715Z,8.30
2019-01-27T12:10:48.182Z,8.40
2019-01-27T12:13:18.586Z,8.40
2019-01-27T12:15:48.901Z,8.30
2019-01-27T12:18:23.663Z,8.30
2019-01-27T12:20:53.738Z,8.20
2019-01-27T12:23:23.924Z,8.20
2019-01-27T12:25:54.068Z,8.30
2019-01-27T12:28:24.462Z,8.30
2019-01-27T12:30:54.710Z,8.30
2019-01-27T12:33:24.785Z,8.40
2019-01-27T12:35:54.845Z,8.40
2019-01-27T12:38:25.048Z,8.40
2019-01-27T12:40:55.329Z,8.30
2019-01-27T12:43:25.526Z,8.20
2019-01-27T12:45:55.695Z,7.90
2019-01-27T12:48:25.879Z,7.70
2019-01-27T12:50:56.415Z,7.60
2019-01-27T12:53:27.065Z,7.40
2019-01-27T12:55:57.774Z,7.30
2019-01-27T12:58:28.377Z,7.10
2019-01-27T13:01:05.736Z,7.10
2019-01-27T13:03:36.032Z,7.00
2019-01-27T13:06:06.443Z,6.90
2019-01-27T13:08:36.690Z,6.90
2019-01-27T13:11:07.034Z,6.90
2019-01-27T13:13:37.465Z,6.90
2019-01-27T13:16:09.835Z,7.00
2019-01-27T13:18:40.575Z,7.10
2019-01-27T13:21:12.681Z,7.20
2019-01-27T13:23:52.890Z,7.30
2019-01-27T13:26:26.946Z,7.30
2019-01-27T13:29:10.212Z,7.30
2019-01-27T13:31:41.023Z,7.30
2019-01-27T13:34:11.781Z,7.20
2019-01-27T13:36:43.547Z,7.20
2019-01-27T13:39:17.643Z,7.10
2019-01-27T13:41:48.115Z,7.00
2019-01-27T13:44:19.998Z,7.00
2019-01-27T13:47:10.529Z,6.90
2019-01-27T13:49:48.746Z,6.90
2019-01-27T13:52:33.920Z,6.80
2019-01-27T13:55:09.495Z,6.80
2019-01-27T13:57:41.356Z,6.70
2019-01-27T14:00:25.479Z,6.60
2019-01-27T14:02:57.585Z,6.60
2019-01-27T14:05:31.675Z,6.60
2019-01-27T14:08:04.867Z,6.70
2019-01-27T14:10:42.912Z,6.80
2019-01-27T14:13:17.096Z,6.90
2019-01-27T14:15:53.921Z,6.90
2019-01-27T14:18:43.782Z,6.90
2019-01-27T14:21:16.613Z,6.90
2019-01-27T14:23:46.098Z,7.00
2019-01-27T14:26:17.313Z,7.00
2019-01-27T14:28:47.809Z,7.00
2019-01-27T14:31:32.269Z,7.00
2019-01-27T14:34:07.624Z,7.00
2019-01-27T14:36:37.836Z,6.90
2019-01-27T14:39:09.591Z,6.90
2019-01-27T14:41:39.794Z,6.80
2019-01-27T14:44:09.926Z,6.80
2019-01-27T14:46:40.192Z,6.90
2019-01-27T14:49:10.537Z,6.90
2019-01-27T14:51:42.146Z,6.90
2019-01-27T14:54:12.245Z,7.00
2019-01-27T14:56:42.372Z,7.00
2019-01-27T14:59:14.502Z,7.00
2019-01-27T15:01:44.542Z,7.00
2019-01-27T15:04:14.859Z,7.10
2019-01-27T15:06:45.074Z,7.10
2019-01-27T15:09:15.413Z,7.10
2019-01-27T15:11:45.570Z,7.10
2019-01-27T15:14:15.741Z,7.10
2019-01-27T15:16:46.207Z,7.10
2019-01-27T15:19:16.803Z,7.10
2019-01-27T15:21:47.113Z,7.00
2019-01-27T15:24:17.193Z,6.80
2019-01-27T15:26:47.247Z,6.70
2019-01-27T15:29:17.691Z,6.50
2019-01-27T15:31:48.570Z,6.50
2019-01-27T15:34:19.049Z,6.40
2019-01-27T15:36:49.267Z,6.30
2019-01-27T15:39:19.665Z,6.30
2019-01-27T15:41:50.166Z,6.20
2019-01-27T15:44:20.773Z,6.20
2019-01-27T15:46:54.226Z,6.10
2019-01-27T15:49:25.945Z,6.00
2019-01-27T15:51:56.108Z,5.90
2019-01-27T15:54:26.407Z,5.90
2019-01-27T15:56:56.629Z,5.80
2019-01-27T15:59:29.503Z,5.80
2019-01-27T16:01:59.555Z,5.70
2019-01-27T16:04:29.838Z,5.70
2019-01-27T16:06:59.885Z,5.60
2019-01-27T16:09:30.042Z,5.60
2019-01-27T16:12:02.039Z,5.60
2019-01-27T16:14:34.877Z,5.50
2019-01-27T16:17:07.839Z,5.50
2019-01-27T16:19:38.273Z,5.50
2019-01-27T16:22:09.973Z,5.40
2019-01-27T16:24:40.435Z,5.40
2019-01-27T16:27:12.075Z,5.40
2019-01-27T16:29:58.026Z,5.40
2019-01-27T16:32:36.387Z,5.40
2019-01-27T16:35:11.989Z,5.40
2019-01-27T16:37:42.818Z,5.30
2019-01-27T16:40:15.475Z,5.40
2019-01-27T16:42:45.640Z,5.30
2019-01-27T16:45:16.989Z,5.30
2019-01-27T16:47:49.704Z,5.30
2019-01-27T16:50:20.199Z,5.30
2019-01-27T16:52:50.306Z,5.30
2019-01-27T16:55:20.490Z,5.30
2019-01-27T16:57:51.132Z,5.30
2019-01-27T17:00:27.192Z,5.30
2019-01-27T17:02:57.574Z,5.30
2019-01-27T17:05:32.109Z,5.30
2019-01-27T17:08:05.188Z,5.30
2019-01-27T17:10:35.647Z,5.30
2019-01-27T17:13:06.076Z,5.20
2019-01-27T17:15:36.565Z,5.30
2019-01-27T17:18:06.919Z,5.30
2019-01-27T17:20:37.278Z,5.30
2019-01-27T17:23:07.680Z,5.30
2019-01-27T17:25:38.076Z,5.30
2019-01-27T17:28:11.332Z,5.30
2019-01-27T17:30:42.061Z,5.30
2019-01-27T17:33:17.578Z,5.30
2019-01-27T17:35:52.594Z,5.30
2019-01-27T17:38:23.226Z,5.30
2019-01-27T17:40:53.672Z,5.30
2019-01-27T17:43:25.115Z,5.30
2019-01-27T17:46:00.420Z,5.30
2019-01-27T17:48:38.978Z,5.30
2019-01-27T17:51:12.717Z,5.30
2019-01-27T17:54:03.443Z,5.30
2019-01-27T17:57:00.229Z,5.30
2019-01-27T17:59:56.959Z,5.30
2019-01-27T18:03:01.217Z,5.40
2019-01-27T18:05:50.984Z,5.40
2019-01-27T18:08:37.012Z,5.40
2019-01-27T18:11:17.924Z,5.40
2019-01-27T18:14:00.276Z,5.40
2019-01-27T18:16:30.925Z,5.30
2019-01-27T18:19:01.065Z,5.20
2019-01-27T18:21:31.437Z,5.10
2019-01-27T18:24:02.053Z,5.00
2019-01-27T18:26:32.203Z,4.80
2019-01-27T18:29:03.540Z,4.80
2019-01-27T18:31:33.919Z,4.60
2019-01-27T18:34:05.282Z,4.60
2019-01-27T18:36:35.838Z,4.60
2019-01-27T18:39:10.669Z,4.60
2019-01-27T18:41:41.465Z,4.50
2019-01-27T18:44:11.747Z,4.40
2019-01-27T18:46:42.044Z,4.40
2019-01-27T18:49:12.472Z,4.40
2019-01-27T18:51:42.604Z,4.40
2019-01-27T18:54:37.059Z,4.40
2019-01-27T18:57:26.110Z,4.30
2019-01-27T19:00:14.186Z,4.40
2019-01-27T19:03:06.089Z,4.30
2019-01-27T19:05:43.812Z,4.30
2019-01-27T19:08:33.769Z,4.30
2019-01-27T19:11:12.202Z,4.30
2019-01-27T19:14:09.048Z,4.20
2019-01-27T19:16:52.166Z,4.20
2019-01-27T19:19:29.682Z,4.20
2019-01-27T19:22:23.928Z,4.20
2019-01-27T19:25:10.588Z,4.20
2019-01-27T19:27:55.494Z,4.10
2019-01-27T19:30:54.046Z,4.10
2019-01-27T19:33:32.917Z,4.00
2019-01-27T19:36:23.670Z,4.00
2019-01-27T19:39:11.670Z,4.00
2019-01-27T19:42:02.930Z,4.00
2019-01-27T19:45:01.285Z,4.00
2019-01-27T19:47:49.537Z,3.90
2019-01-27T19:50:50.473Z,3.90
2019-01-27T19:53:47.849Z,3.90
2019-01-27T19:56:41.025Z,3.90
2019-01-27T19:59:36.212Z,3.80
2019-01-27T20:02:39.600Z,3.80
2019-01-27T20:05:50.975Z,3.80
2019-01-27T20:08:31.644Z,3.70
2019-01-27T20:11:26.379Z,3.70
2019-01-27T20:14:14.476Z,3.70
2019-01-27T20:17:02.918Z,3.70
2019-01-27T20:19:52.367Z,3.60
2019-01-27T20:22:34.620Z,3.70
2019-01-27T20:25:20.645Z,3.60
2019-01-27T20:28:11.690Z,3.60
2019-01-27T20:31:16.293Z,3.70
2019-01-27T20:34:11.520Z,3.60
2019-01-27T20:37:09.906Z,3.60
2019-01-27T20:39:45.414Z,3.60
2019-01-27T20:42:35.363Z,3.60
2019-01-27T20:45:21.886Z,3.60
2019-01-27T20:48:06.232Z,3.60
2019-01-27T20:51:13.840Z,3.60
2019-01-27T20:54:03.083Z,3.50
2019-01-27T20:56:45.641Z,3.50
2019-01-27T20:59:41.208Z,3.50
2019-01-27T21:02:33.308Z,3.50
2019-01-27T21:05:17.217Z,3.50
2019-01-27T21:08:08.193Z,3.50
2019-01-27T21:10:46.086Z,3.50
2019-01-27T21:13:24.621Z,3.50
2019-01-27T21:16:16.679Z,3.40
2019-01-27T21:18:58.245Z,3.40
2019-01-27T21:21:29.065Z,3.30
2019-01-27T21:24:00.530Z,3.30
2019-01-27T21:26:31.127Z,3.30
2019-01-27T21:29:01.315Z,3.30
2019-01-27T21:31:33.405Z,3.30
2019-01-27T21:34:09.895Z,3.30
2019-01-27T21:36:40.443Z,3.30
2019-01-27T21:39:12.527Z,3.20
2019-01-27T21:41:42.731Z,3.20
2019-01-27T21:44:13.707Z,3.30
2019-01-27T21:46:44.571Z,3.20
2019-01-27T21:49:15.238Z,3.20
2019-01-27T21:51:47.536Z,3.20
2019-01-27T21:54:18.731Z,3.20
2019-01-27T21:56:49.050Z,3.20
2019-01-27T21:59:19.439Z,3.20
2019-01-27T22:01:49.852Z,3.20
2019-01-27T22:04:20.296Z,3.10
2019-01-27T22:06:51.018Z,3.10
2019-01-27T22:09:21.664Z,3.10
2019-01-27T22:11:51.860Z,3.10
2019-01-27T22:14:22.305Z,3.10
2019-01-27T22:16:52.589Z,3.10
2019-01-27T22:19:22.836Z,3.10
2019-01-27T22:21:53.699Z,3.10
2019-01-27T22:24:23.908Z,3.00
2019-01-27T22:26:54.164Z,3.00
2019-01-27T22:29:24.476Z,3.00
2019-01-27T22:31:54.663Z,3.00
2019-01-27T22:34:24.882Z,3.00
2019-01-27T22:36:54.817Z,3.00
2019-01-27T22:39:25.773Z,3.00
2019-01-27T22:41:56.043Z,3.00
2019-01-27T22:44:26.513Z,3.00
2019-01-27T22:46:56.623Z,3.00
2019-01-27T22:49:26.780Z,3.00
2019-01-27T22:51:56.945Z,3.00
2019-01-27T22:54:27.119Z,2.90
2019-01-27T22:56:57.700Z,2.90
2019-01-27T22:59:28.659Z,2.90
2019-01-27T23:01:59.082Z,2.90
2019-01-27T23:04:33.407Z,2.90
2019-01-27T23:07:04.163Z,3.00
2019-01-27T23:09:34.828Z,3.00
2019-01-27T23:12:05.194Z,3.00
2019-01-27T23:14:35.746Z,3.00
2019-01-27T23:17:06.164Z,3.00
2019-01-27T23:19:36.678Z,3.00
2019-01-27T23:22:12.796Z,3.10
2019-01-27T23:24:43.132Z,3.10
2019-01-27T23:27:15.799Z,3.10
2019-01-27T23:29:46.232Z,3.10
2019-01-27T23:32:16.503Z,3.20
2019-01-27T23:34:46.485Z,3.20
2019-01-27T23:37:16.941Z,3.20
2019-01-27T23:39:47.239Z,3.20
2019-01-27T23:42:17.334Z,3.20
2019-01-27T23:44:47.311Z,3.20
2019-01-27T23:47:17.504Z,3.20
2019-01-27T23:49:48.869Z,3.20
2019-01-27T23:52:19.457Z,3.20
2019-01-27T23:54:49.680Z,3.20
2019-01-27T23:57:19.760Z,3.20
2019-01-27T23:59:50.383Z,3.20
